sensor_id;sensor_type;location;lat;lon;timestamp;P1;durP1;ratioP1;P2;durP2;ratioP2
9763;SDS011;4921;43.214;27.936;2023-09-08T00:00:21;2.87;;;2.20;;
9763;SDS011;4921;43.214;27.936;2023-09-08T00:02:48;2.80;;;2.60;;
9763;SDS011;4921;43.214;27.936;2023-09-08T00:05:15;2.90;;;2.70;;
9763;SDS011;4921;43.214;27.936;2023-09-08T00:07:42;2.60;;;2.50;;
9763;SDS011;4921;43.214;27.936;2023-09-08T00:10:09;3.80;;;2.70;;
9763;SDS011;4921;43.214;27.936;2023-09-08T00:12:38;3.43;;;2.63;;
9763;SDS011;4921;43.214;27.936;2023-09-08T00:15:06;2.40;;;2.30;;
9763;SDS011;4921;43.214;27.936;2023-09-08T00:17:34;3.87;;;3.03;;
9763;SDS011;4921;43.214;27.936;2023-09-08T00:20:01;3.37;;;3.03;;
9763;SDS011;4921;43.214;27.936;2023-09-08T00:22:31;2.50;;;2.40;;
9763;SDS011;4921;43.214;27.936;2023-09-08T00:24:58;2.77;;;2.17;;
9763;SDS011;4921;43.214;27.936;2023-09-08T00:27:25;5.43;;;2.60;;
9763;SDS011;4921;43.214;27.936;2023-09-08T00:29:53;3.57;;;2.80;;
9763;SDS011;4921;43.214;27.936;2023-09-08T00:32:20;4.80;;;2.80;;
9763;SDS011;4921;43.214;27.936;2023-09-08T00:34:47;2.77;;;2.53;;
9763;SDS011;4921;43.214;27.936;2023-09-08T00:37:14;4.10;;;2.93;;
9763;SDS011;4921;43.214;27.936;2023-09-08T00:39:41;2.67;;;2.47;;
9763;SDS011;4921;43.214;27.936;2023-09-08T00:42:08;4.60;;;2.67;;
9763;SDS011;4921;43.214;27.936;2023-09-08T00:44:35;2.83;;;2.70;;
9763;SDS011;4921;43.214;27.936;2023-09-08T00:47:03;3.03;;;2.80;;
9763;SDS011;4921;43.214;27.936;2023-09-08T00:49:31;2.63;;;2.50;;
9763;SDS011;4921;43.214;27.936;2023-09-08T00:51:58;2.93;;;2.73;;
9763;SDS011;4921;43.214;27.936;2023-09-08T00:54:25;5.53;;;2.80;;
9763;SDS011;4921;43.214;27.936;2023-09-08T00:56:54;3.43;;;2.60;;
9763;SDS011;4921;43.214;27.936;2023-09-08T00:59:22;3.20;;;2.53;;
9763;SDS011;4921;43.214;27.936;2023-09-08T01:01:50;2.33;;;2.20;;
9763;SDS011;4921;43.214;27.936;2023-09-08T01:04:18;2.87;;;2.67;;
9763;SDS011;4921;43.214;27.936;2023-09-08T01:06:47;2.63;;;2.43;;
9763;SDS011;4921;43.214;27.936;2023-09-08T01:09:14;3.93;;;2.70;;
9763;SDS011;4921;43.214;27.936;2023-09-08T01:11:42;3.93;;;2.63;;
9763;SDS011;4921;43.214;27.936;2023-09-08T01:14:11;2.83;;;2.50;;
9763;SDS011;4921;43.214;27.936;2023-09-08T01:16:38;2.87;;;2.53;;
9763;SDS011;4921;43.214;27.936;2023-09-08T01:19:06;2.93;;;2.73;;
9763;SDS011;4921;43.214;27.936;2023-09-08T01:27:47;4.47;;;2.50;;
9763;SDS011;4921;43.214;27.936;2023-09-08T01:30:17;2.60;;;2.40;;
9763;SDS011;4921;43.214;27.936;2023-09-08T01:32:46;4.43;;;2.63;;
9763;SDS011;4921;43.214;27.936;2023-09-08T01:35:13;3.47;;;2.33;;
9763;SDS011;4921;43.214;27.936;2023-09-08T01:37:41;3.87;;;2.70;;
9763;SDS011;4921;43.214;27.936;2023-09-08T01:40:08;6.10;;;2.80;;
9763;SDS011;4921;43.214;27.936;2023-09-08T01:42:37;2.57;;;2.37;;
9763;SDS011;4921;43.214;27.936;2023-09-08T01:45:06;2.57;;;2.30;;
9763;SDS011;4921;43.214;27.936;2023-09-08T01:47:33;2.43;;;2.33;;
9763;SDS011;4921;43.214;27.936;2023-09-08T01:50:01;4.00;;;2.70;;
9763;SDS011;4921;43.214;27.936;2023-09-08T01:52:28;2.50;;;2.20;;
9763;SDS011;4921;43.214;27.936;2023-09-08T01:54:55;2.93;;;2.20;;
9763;SDS011;4921;43.214;27.936;2023-09-08T01:57:23;2.33;;;2.23;;
9763;SDS011;4921;43.214;27.936;2023-09-08T01:59:49;6.07;;;2.63;;
9763;SDS011;4921;43.214;27.936;2023-09-08T02:02:18;3.37;;;2.40;;
9763;SDS011;4921;43.214;27.936;2023-09-08T02:04:45;3.47;;;2.40;;
9763;SDS011;4921;43.214;27.936;2023-09-08T02:07:12;2.43;;;2.23;;
9763;SDS011;4921;43.214;27.936;2023-09-08T02:09:39;2.90;;;2.70;;
9763;SDS011;4921;43.214;27.936;2023-09-08T02:12:07;2.93;;;2.73;;
9763;SDS011;4921;43.214;27.936;2023-09-08T02:14:34;3.20;;;2.23;;
9763;SDS011;4921;43.214;27.936;2023-09-08T02:17:01;3.00;;;2.50;;
9763;SDS011;4921;43.214;27.936;2023-09-08T02:19:30;3.97;;;2.43;;
9763;SDS011;4921;43.214;27.936;2023-09-08T02:21:57;2.67;;;2.47;;
9763;SDS011;4921;43.214;27.936;2023-09-08T02:24:24;2.93;;;2.70;;
9763;SDS011;4921;43.214;27.936;2023-09-08T02:26:50;3.17;;;2.50;;
9763;SDS011;4921;43.214;27.936;2023-09-08T02:29:19;2.40;;;2.30;;
9763;SDS011;4921;43.214;27.936;2023-09-08T02:31:47;4.07;;;2.40;;
9763;SDS011;4921;43.214;27.936;2023-09-08T02:34:14;5.87;;;2.53;;
9763;SDS011;4921;43.214;27.936;2023-09-08T02:36:44;2.83;;;2.53;;
9763;SDS011;4921;43.214;27.936;2023-09-08T02:39:12;5.10;;;2.70;;
9763;SDS011;4921;43.214;27.936;2023-09-08T02:41:39;4.70;;;2.50;;
9763;SDS011;4921;43.214;27.936;2023-09-08T02:44:06;3.97;;;2.50;;
9763;SDS011;4921;43.214;27.936;2023-09-08T02:46:34;4.13;;;2.57;;
9763;SDS011;4921;43.214;27.936;2023-09-08T02:49:01;2.07;;;1.97;;
9763;SDS011;4921;43.214;27.936;2023-09-08T02:51:28;2.40;;;2.10;;
9763;SDS011;4921;43.214;27.936;2023-09-08T02:53:56;3.57;;;2.50;;
9763;SDS011;4921;43.214;27.936;2023-09-08T02:56:23;4.00;;;2.37;;
9763;SDS011;4921;43.214;27.936;2023-09-08T02:58:50;2.63;;;2.53;;
9763;SDS011;4921;43.214;27.936;2023-09-08T03:01:17;4.00;;;2.60;;
9763;SDS011;4921;43.214;27.936;2023-09-08T03:03:45;3.23;;;2.80;;
9763;SDS011;4921;43.214;27.936;2023-09-08T03:06:13;2.37;;;2.20;;
9763;SDS011;4921;43.214;27.936;2023-09-08T03:08:41;3.80;;;2.40;;
9763;SDS011;4921;43.214;27.936;2023-09-08T03:11:09;3.37;;;2.70;;
9763;SDS011;4921;43.214;27.936;2023-09-08T03:13:37;4.03;;;2.50;;
9763;SDS011;4921;43.214;27.936;2023-09-08T03:16:04;3.77;;;2.57;;
9763;SDS011;4921;43.214;27.936;2023-09-08T03:18:32;3.63;;;2.53;;
9763;SDS011;4921;43.214;27.936;2023-09-08T03:21:01;2.70;;;2.47;;
9763;SDS011;4921;43.214;27.936;2023-09-08T03:23:34;2.63;;;2.43;;
9763;SDS011;4921;43.214;27.936;2023-09-08T03:26:01;3.30;;;2.67;;
9763;SDS011;4921;43.214;27.936;2023-09-08T03:28:30;4.00;;;2.47;;
9763;SDS011;4921;43.214;27.936;2023-09-08T03:30:57;2.90;;;2.60;;
9763;SDS011;4921;43.214;27.936;2023-09-08T03:33:24;2.93;;;2.73;;
9763;SDS011;4921;43.214;27.936;2023-09-08T03:35:51;3.67;;;2.40;;
9763;SDS011;4921;43.214;27.936;2023-09-08T03:38:18;8.83;;;2.40;;
9763;SDS011;4921;43.214;27.936;2023-09-08T03:40:45;4.70;;;2.50;;
9763;SDS011;4921;43.214;27.936;2023-09-08T03:43:12;3.33;;;2.40;;
9763;SDS011;4921;43.214;27.936;2023-09-08T03:45:41;2.60;;;2.40;;
9763;SDS011;4921;43.214;27.936;2023-09-08T03:48:08;3.10;;;2.37;;
9763;SDS011;4921;43.214;27.936;2023-09-08T03:50:35;4.93;;;2.53;;
9763;SDS011;4921;43.214;27.936;2023-09-08T03:53:02;3.97;;;2.50;;
9763;SDS011;4921;43.214;27.936;2023-09-08T03:55:30;3.07;;;2.20;;
9763;SDS011;4921;43.214;27.936;2023-09-08T03:57:57;2.40;;;2.20;;
9763;SDS011;4921;43.214;27.936;2023-09-08T04:00:24;3.03;;;2.80;;
9763;SDS011;4921;43.214;27.936;2023-09-08T04:02:52;3.63;;;2.57;;
9763;SDS011;4921;43.214;27.936;2023-09-08T04:05:19;3.57;;;2.53;;
9763;SDS011;4921;43.214;27.936;2023-09-08T04:07:47;2.80;;;2.60;;
9763;SDS011;4921;43.214;27.936;2023-09-08T04:10:14;2.40;;;2.20;;
9763;SDS011;4921;43.214;27.936;2023-09-08T04:12:41;7.70;;;2.50;;
9763;SDS011;4921;43.214;27.936;2023-09-08T04:15:08;4.70;;;2.80;;
9763;SDS011;4921;43.214;27.936;2023-09-08T04:17:36;6.30;;;2.50;;
9763;SDS011;4921;43.214;27.936;2023-09-08T04:20:06;4.73;;;2.67;;
9763;SDS011;4921;43.214;27.936;2023-09-08T04:22:34;4.07;;;2.50;;
9763;SDS011;4921;43.214;27.936;2023-09-08T04:25:01;3.37;;;2.60;;
9763;SDS011;4921;43.214;27.936;2023-09-08T04:27:30;3.93;;;2.47;;
9763;SDS011;4921;43.214;27.936;2023-09-08T04:29:57;3.60;;;2.70;;
9763;SDS011;4921;43.214;27.936;2023-09-08T04:32:25;5.00;;;2.90;;
9763;SDS011;4921;43.214;27.936;2023-09-08T04:34:51;4.27;;;2.60;;
9763;SDS011;4921;43.214;27.936;2023-09-08T04:37:20;2.90;;;2.63;;
9763;SDS011;4921;43.214;27.936;2023-09-08T04:39:47;3.07;;;2.77;;
9763;SDS011;4921;43.214;27.936;2023-09-08T04:42:14;2.97;;;2.70;;
9763;SDS011;4921;43.214;27.936;2023-09-08T04:44:41;2.80;;;2.40;;
9763;SDS011;4921;43.214;27.936;2023-09-08T04:47:07;5.03;;;3.13;;
9763;SDS011;4921;43.214;27.936;2023-09-08T04:49:34;17.63;;;4.60;;
9763;SDS011;4921;43.214;27.936;2023-09-08T04:52:02;6.17;;;2.97;;
9763;SDS011;4921;43.214;27.936;2023-09-08T04:54:31;3.10;;;2.70;;
9763;SDS011;4921;43.214;27.936;2023-09-08T04:56:58;5.77;;;2.53;;
9763;SDS011;4921;43.214;27.936;2023-09-08T04:59:25;5.97;;;2.90;;
9763;SDS011;4921;43.214;27.936;2023-09-08T05:01:52;4.60;;;2.83;;
9763;SDS011;4921;43.214;27.936;2023-09-08T05:04:19;4.07;;;2.47;;
9763;SDS011;4921;43.214;27.936;2023-09-08T05:06:46;3.57;;;2.90;;
9763;SDS011;4921;43.214;27.936;2023-09-08T05:09:12;4.40;;;3.17;;
9763;SDS011;4921;43.214;27.936;2023-09-08T05:11:41;3.07;;;2.83;;
9763;SDS011;4921;43.214;27.936;2023-09-08T05:14:08;3.17;;;2.53;;
9763;SDS011;4921;43.214;27.936;2023-09-08T05:16:35;3.43;;;3.13;;
9763;SDS011;4921;43.214;27.936;2023-09-08T05:19:05;5.40;;;3.30;;
9763;SDS011;4921;43.214;27.936;2023-09-08T05:21:32;3.70;;;3.17;;
9763;SDS011;4921;43.214;27.936;2023-09-08T05:24:00;3.90;;;3.20;;
9763;SDS011;4921;43.214;27.936;2023-09-08T05:26:27;3.50;;;3.20;;
9763;SDS011;4921;43.214;27.936;2023-09-08T05:28:55;6.53;;;3.87;;
9763;SDS011;4921;43.214;27.936;2023-09-08T05:31:22;5.37;;;3.53;;
9763;SDS011;4921;43.214;27.936;2023-09-08T05:33:50;6.83;;;3.60;;
9763;SDS011;4921;43.214;27.936;2023-09-08T05:36:17;6.27;;;3.43;;
9763;SDS011;4921;43.214;27.936;2023-09-08T05:38:44;9.60;;;3.27;;
9763;SDS011;4921;43.214;27.936;2023-09-08T05:41:10;3.70;;;3.40;;
9763;SDS011;4921;43.214;27.936;2023-09-08T05:43:37;4.10;;;3.00;;
9763;SDS011;4921;43.214;27.936;2023-09-08T05:46:06;4.17;;;3.77;;
9763;SDS011;4921;43.214;27.936;2023-09-08T05:48:33;3.30;;;3.00;;
9763;SDS011;4921;43.214;27.936;2023-09-08T05:51:00;8.53;;;3.93;;
9763;SDS011;4921;43.214;27.936;2023-09-08T05:53:27;4.37;;;3.30;;
9763;SDS011;4921;43.214;27.936;2023-09-08T05:55:54;3.93;;;3.50;;
9763;SDS011;4921;43.214;27.936;2023-09-08T05:58:21;5.70;;;3.80;;
9763;SDS011;4921;43.214;27.936;2023-09-08T06:00:49;5.23;;;3.63;;
9763;SDS011;4921;43.214;27.936;2023-09-08T06:03:17;6.00;;;3.43;;
9763;SDS011;4921;43.214;27.936;2023-09-08T06:05:44;5.63;;;3.33;;
9763;SDS011;4921;43.214;27.936;2023-09-08T06:08:12;5.03;;;3.80;;
9763;SDS011;4921;43.214;27.936;2023-09-08T06:10:39;8.37;;;4.00;;
9763;SDS011;4921;43.214;27.936;2023-09-08T06:13:06;6.00;;;3.80;;
9763;SDS011;4921;43.214;27.936;2023-09-08T06:15:33;9.53;;;4.30;;
9763;SDS011;4921;43.214;27.936;2023-09-08T06:18:06;6.57;;;4.17;;
9763;SDS011;4921;43.214;27.936;2023-09-08T06:20:37;6.17;;;4.03;;
9763;SDS011;4921;43.214;27.936;2023-09-08T06:23:10;4.63;;;3.77;;
9763;SDS011;4921;43.214;27.936;2023-09-08T06:25:37;7.67;;;4.30;;
9763;SDS011;4921;43.214;27.936;2023-09-08T06:28:04;6.43;;;4.13;;
9763;SDS011;4921;43.214;27.936;2023-09-08T06:30:31;6.77;;;4.33;;
9763;SDS011;4921;43.214;27.936;2023-09-08T06:32:58;6.07;;;4.13;;
9763;SDS011;4921;43.214;27.936;2023-09-08T06:35:25;5.90;;;4.27;;
9763;SDS011;4921;43.214;27.936;2023-09-08T06:37:54;10.07;;;4.30;;
9763;SDS011;4921;43.214;27.936;2023-09-08T06:40:22;8.80;;;4.20;;
9763;SDS011;4921;43.214;27.936;2023-09-08T06:42:49;7.17;;;4.03;;
9763;SDS011;4921;43.214;27.936;2023-09-08T06:45:16;12.30;;;4.37;;
9763;SDS011;4921;43.214;27.936;2023-09-08T06:47:44;6.97;;;4.47;;
9763;SDS011;4921;43.214;27.936;2023-09-08T06:50:10;4.60;;;3.90;;
9763;SDS011;4921;43.214;27.936;2023-09-08T06:52:37;8.67;;;4.43;;
9763;SDS011;4921;43.214;27.936;2023-09-08T06:55:06;7.73;;;4.30;;
9763;SDS011;4921;43.214;27.936;2023-09-08T06:57:34;8.33;;;6.00;;
9763;SDS011;4921;43.214;27.936;2023-09-08T07:00:01;6.33;;;4.50;;
9763;SDS011;4921;43.214;27.936;2023-09-08T07:02:32;7.17;;;4.57;;
9763;SDS011;4921;43.214;27.936;2023-09-08T07:05:00;5.03;;;3.83;;
9763;SDS011;4921;43.214;27.936;2023-09-08T07:07:31;26.37;;;11.07;;
9763;SDS011;4921;43.214;27.936;2023-09-08T07:09:58;9.93;;;4.50;;
9763;SDS011;4921;43.214;27.936;2023-09-08T07:12:27;6.23;;;4.20;;
9763;SDS011;4921;43.214;27.936;2023-09-08T07:14:54;9.07;;;5.43;;
9763;SDS011;4921;43.214;27.936;2023-09-08T07:17:21;9.07;;;3.87;;
9763;SDS011;4921;43.214;27.936;2023-09-08T07:19:48;5.07;;;4.27;;
9763;SDS011;4921;43.214;27.936;2023-09-08T07:22:15;4.37;;;3.90;;
9763;SDS011;4921;43.214;27.936;2023-09-08T07:24:42;5.50;;;3.50;;
9763;SDS011;4921;43.214;27.936;2023-09-08T07:27:09;4.33;;;3.93;;
9763;SDS011;4921;43.214;27.936;2023-09-08T07:29:40;7.00;;;3.83;;
9763;SDS011;4921;43.214;27.936;2023-09-08T07:32:07;4.63;;;3.80;;
9763;SDS011;4921;43.214;27.936;2023-09-08T07:34:34;6.73;;;4.17;;
9763;SDS011;4921;43.214;27.936;2023-09-08T07:37:01;6.13;;;4.13;;
9763;SDS011;4921;43.214;27.936;2023-09-08T07:39:28;6.50;;;4.20;;
9763;SDS011;4921;43.214;27.936;2023-09-08T07:41:55;9.27;;;4.20;;
9763;SDS011;4921;43.214;27.936;2023-09-08T07:44:22;6.10;;;4.00;;
9763;SDS011;4921;43.214;27.936;2023-09-08T07:46:50;4.27;;;3.20;;
9763;SDS011;4921;43.214;27.936;2023-09-08T07:49:18;5.00;;;4.03;;
9763;SDS011;4921;43.214;27.936;2023-09-08T07:51:45;9.73;;;4.10;;
9763;SDS011;4921;43.214;27.936;2023-09-08T07:54:12;5.13;;;3.90;;
9763;SDS011;4921;43.214;27.936;2023-09-08T07:56:39;5.40;;;4.13;;
9763;SDS011;4921;43.214;27.936;2023-09-08T07:59:06;11.10;;;4.43;;
9763;SDS011;4921;43.214;27.936;2023-09-08T08:01:33;8.67;;;4.30;;
9763;SDS011;4921;43.214;27.936;2023-09-08T08:04:02;11.83;;;4.40;;
9763;SDS011;4921;43.214;27.936;2023-09-08T08:06:29;4.43;;;3.87;;
9763;SDS011;4921;43.214;27.936;2023-09-08T08:08:56;8.83;;;4.33;;
9763;SDS011;4921;43.214;27.936;2023-09-08T08:11:23;7.73;;;4.17;;
9763;SDS011;4921;43.214;27.936;2023-09-08T08:13:51;8.10;;;4.37;;
9763;SDS011;4921;43.214;27.936;2023-09-08T08:16:18;6.37;;;4.70;;
9763;SDS011;4921;43.214;27.936;2023-09-08T08:18:46;10.80;;;4.73;;
9763;SDS011;4921;43.214;27.936;2023-09-08T08:21:15;5.23;;;4.27;;
9763;SDS011;4921;43.214;27.936;2023-09-08T08:23:42;9.87;;;4.47;;
9763;SDS011;4921;43.214;27.936;2023-09-08T08:26:09;7.73;;;4.47;;
9763;SDS011;4921;43.214;27.936;2023-09-08T08:28:35;8.03;;;4.10;;
9763;SDS011;4921;43.214;27.936;2023-09-08T08:31:02;7.10;;;4.10;;
9763;SDS011;4921;43.214;27.936;2023-09-08T08:33:29;5.97;;;3.73;;
9763;SDS011;4921;43.214;27.936;2023-09-08T08:35:57;14.03;;;5.17;;
9763;SDS011;4921;43.214;27.936;2023-09-08T08:38:25;14.80;;;5.30;;
9763;SDS011;4921;43.214;27.936;2023-09-08T08:40:51;10.07;;;4.83;;
9763;SDS011;4921;43.214;27.936;2023-09-08T08:43:18;9.47;;;4.50;;
9763;SDS011;4921;43.214;27.936;2023-09-08T08:45:46;7.57;;;4.77;;
9763;SDS011;4921;43.214;27.936;2023-09-08T08:48:14;7.40;;;4.17;;
9763;SDS011;4921;43.214;27.936;2023-09-08T08:50:44;11.33;;;4.70;;
9763;SDS011;4921;43.214;27.936;2023-09-08T08:53:11;6.13;;;3.43;;
9763;SDS011;4921;43.214;27.936;2023-09-08T08:55:40;8.60;;;4.27;;
9763;SDS011;4921;43.214;27.936;2023-09-08T08:58:07;6.37;;;4.20;;
9763;SDS011;4921;43.214;27.936;2023-09-08T09:00:35;7.23;;;3.97;;
9763;SDS011;4921;43.214;27.936;2023-09-08T09:03:04;6.80;;;4.63;;
9763;SDS011;4921;43.214;27.936;2023-09-08T09:05:32;4.73;;;4.13;;
9763;SDS011;4921;43.214;27.936;2023-09-08T09:08:01;5.13;;;3.93;;
9763;SDS011;4921;43.214;27.936;2023-09-08T09:10:30;9.40;;;3.63;;
9763;SDS011;4921;43.214;27.936;2023-09-08T09:12:58;7.10;;;4.20;;
9763;SDS011;4921;43.214;27.936;2023-09-08T09:15:28;12.30;;;4.10;;
9763;SDS011;4921;43.214;27.936;2023-09-08T09:18:03;8.97;;;3.97;;
9763;SDS011;4921;43.214;27.936;2023-09-08T09:20:30;11.40;;;4.50;;
9763;SDS011;4921;43.214;27.936;2023-09-08T09:22:58;7.30;;;4.07;;
9763;SDS011;4921;43.214;27.936;2023-09-08T09:25:25;8.40;;;3.90;;
9763;SDS011;4921;43.214;27.936;2023-09-08T09:27:54;9.33;;;4.20;;
9763;SDS011;4921;43.214;27.936;2023-09-08T09:30:24;6.83;;;3.87;;
9763;SDS011;4921;43.214;27.936;2023-09-08T09:33:01;4.37;;;3.30;;
9763;SDS011;4921;43.214;27.936;2023-09-08T09:35:42;5.40;;;3.00;;
9763;SDS011;4921;43.214;27.936;2023-09-08T09:38:10;6.93;;;3.80;;
9763;SDS011;4921;43.214;27.936;2023-09-08T09:40:38;8.83;;;3.53;;
9763;SDS011;4921;43.214;27.936;2023-09-08T09:43:05;6.33;;;3.17;;
9763;SDS011;4921;43.214;27.936;2023-09-08T09:45:34;5.93;;;3.30;;
9763;SDS011;4921;43.214;27.936;2023-09-08T09:48:02;8.93;;;3.60;;
9763;SDS011;4921;43.214;27.936;2023-09-08T09:50:30;5.10;;;3.43;;
9763;SDS011;4921;43.214;27.936;2023-09-08T09:52:59;9.97;;;3.53;;
9763;SDS011;4921;43.214;27.936;2023-09-08T09:55:28;7.40;;;3.40;;
9763;SDS011;4921;43.214;27.936;2023-09-08T09:57:55;8.07;;;3.30;;
9763;SDS011;4921;43.214;27.936;2023-09-08T10:00:25;6.70;;;3.30;;
9763;SDS011;4921;43.214;27.936;2023-09-08T10:02:55;6.90;;;2.70;;
9763;SDS011;4921;43.214;27.936;2023-09-08T10:05:23;8.67;;;3.10;;
9763;SDS011;4921;43.214;27.936;2023-09-08T10:07:50;7.00;;;3.60;;
9763;SDS011;4921;43.214;27.936;2023-09-08T10:10:18;8.60;;;3.40;;
9763;SDS011;4921;43.214;27.936;2023-09-08T10:12:48;7.30;;;3.20;;
9763;SDS011;4921;43.214;27.936;2023-09-08T10:15:19;7.00;;;3.20;;
9763;SDS011;4921;43.214;27.936;2023-09-08T10:17:51;5.83;;;3.00;;
9763;SDS011;4921;43.214;27.936;2023-09-08T10:20:22;7.37;;;3.10;;
9763;SDS011;4921;43.214;27.936;2023-09-08T10:22:52;7.10;;;3.10;;
9763;SDS011;4921;43.214;27.936;2023-09-08T10:25:21;5.17;;;3.00;;
9763;SDS011;4921;43.214;27.936;2023-09-08T10:27:51;7.80;;;3.17;;
9763;SDS011;4921;43.214;27.936;2023-09-08T10:30:20;6.97;;;3.43;;
9763;SDS011;4921;43.214;27.936;2023-09-08T10:32:47;7.43;;;3.13;;
9763;SDS011;4921;43.214;27.936;2023-09-08T10:35:16;6.23;;;3.30;;
9763;SDS011;4921;43.214;27.936;2023-09-08T10:37:45;12.63;;;3.50;;
9763;SDS011;4921;43.214;27.936;2023-09-08T10:40:21;4.63;;;2.93;;
9763;SDS011;4921;43.214;27.936;2023-09-08T10:43:02;6.17;;;3.20;;
9763;SDS011;4921;43.214;27.936;2023-09-08T10:45:32;5.30;;;3.30;;
9763;SDS011;4921;43.214;27.936;2023-09-08T10:48:00;7.80;;;3.20;;
9763;SDS011;4921;43.214;27.936;2023-09-08T10:50:30;6.70;;;3.20;;
9763;SDS011;4921;43.214;27.936;2023-09-08T10:53:08;10.20;;;3.13;;
9763;SDS011;4921;43.214;27.936;2023-09-08T10:55:40;9.40;;;3.43;;
9763;SDS011;4921;43.214;27.936;2023-09-08T10:58:16;5.10;;;3.23;;
9763;SDS011;4921;43.214;27.936;2023-09-08T11:00:45;7.53;;;3.00;;
9763;SDS011;4921;43.214;27.936;2023-09-08T11:03:13;5.23;;;3.20;;
9763;SDS011;4921;43.214;27.936;2023-09-08T11:05:43;6.43;;;3.70;;
9763;SDS011;4921;43.214;27.936;2023-09-08T11:08:12;6.23;;;3.80;;
9763;SDS011;4921;43.214;27.936;2023-09-08T11:10:39;4.53;;;2.93;;
9763;SDS011;4921;43.214;27.936;2023-09-08T11:13:07;6.10;;;3.23;;
9763;SDS011;4921;43.214;27.936;2023-09-08T11:15:34;5.07;;;2.80;;
9763;SDS011;4921;43.214;27.936;2023-09-08T11:18:04;4.07;;;2.70;;
9763;SDS011;4921;43.214;27.936;2023-09-08T11:20:33;6.70;;;3.10;;
9763;SDS011;4921;43.214;27.936;2023-09-08T11:23:01;5.00;;;3.30;;
9763;SDS011;4921;43.214;27.936;2023-09-08T11:25:32;7.67;;;3.43;;
9763;SDS011;4921;43.214;27.936;2023-09-08T11:28:00;5.97;;;3.30;;
9763;SDS011;4921;43.214;27.936;2023-09-08T11:30:28;6.90;;;2.83;;
9763;SDS011;4921;43.214;27.936;2023-09-08T11:32:55;5.47;;;2.83;;
9763;SDS011;4921;43.214;27.936;2023-09-08T11:35:26;4.70;;;3.53;;
9763;SDS011;4921;43.214;27.936;2023-09-08T11:37:58;7.73;;;2.73;;
9763;SDS011;4921;43.214;27.936;2023-09-08T11:40:25;7.97;;;2.83;;
9763;SDS011;4921;43.214;27.936;2023-09-08T11:42:54;6.27;;;2.80;;
9763;SDS011;4921;43.214;27.936;2023-09-08T11:45:21;10.23;;;3.13;;
9763;SDS011;4921;43.214;27.936;2023-09-08T11:47:48;7.50;;;3.20;;
9763;SDS011;4921;43.214;27.936;2023-09-08T11:50:16;5.27;;;2.80;;
9763;SDS011;4921;43.214;27.936;2023-09-08T11:52:45;5.17;;;2.70;;
9763;SDS011;4921;43.214;27.936;2023-09-08T11:55:13;4.20;;;3.10;;
9763;SDS011;4921;43.214;27.936;2023-09-08T11:57:41;8.03;;;3.33;;
9763;SDS011;4921;43.214;27.936;2023-09-08T12:00:11;6.47;;;2.93;;
9763;SDS011;4921;43.214;27.936;2023-09-08T12:02:42;6.07;;;3.00;;
9763;SDS011;4921;43.214;27.936;2023-09-08T12:05:12;4.63;;;2.50;;
9763;SDS011;4921;43.214;27.936;2023-09-08T12:07:40;5.17;;;2.60;;
9763;SDS011;4921;43.214;27.936;2023-09-08T12:10:08;8.20;;;3.00;;
9763;SDS011;4921;43.214;27.936;2023-09-08T12:12:47;5.43;;;2.77;;
9763;SDS011;4921;43.214;27.936;2023-09-08T12:15:32;7.30;;;2.77;;
9763;SDS011;4921;43.214;27.936;2023-09-08T12:18:00;8.23;;;3.07;;
9763;SDS011;4921;43.214;27.936;2023-09-08T12:20:28;8.17;;;3.27;;
9763;SDS011;4921;43.214;27.936;2023-09-08T12:22:56;7.80;;;3.13;;
9763;SDS011;4921;43.214;27.936;2023-09-08T12:25:26;11.07;;;3.53;;
9763;SDS011;4921;43.214;27.936;2023-09-08T12:27:53;7.20;;;3.43;;
9763;SDS011;4921;43.214;27.936;2023-09-08T12:30:21;7.23;;;3.27;;
9763;SDS011;4921;43.214;27.936;2023-09-08T12:32:56;5.97;;;3.60;;
9763;SDS011;4921;43.214;27.936;2023-09-08T12:35:24;5.23;;;3.00;;
9763;SDS011;4921;43.214;27.936;2023-09-08T12:37:53;5.20;;;2.90;;
9763;SDS011;4921;43.214;27.936;2023-09-08T12:40:23;5.40;;;3.00;;
9763;SDS011;4921;43.214;27.936;2023-09-08T12:42:50;5.30;;;3.00;;
9763;SDS011;4921;43.214;27.936;2023-09-08T12:45:17;5.60;;;3.00;;
9763;SDS011;4921;43.214;27.936;2023-09-08T12:47:44;9.00;;;2.83;;
9763;SDS011;4921;43.214;27.936;2023-09-08T12:50:13;7.90;;;3.30;;
9763;SDS011;4921;43.214;27.936;2023-09-08T12:52:40;5.40;;;3.20;;
9763;SDS011;4921;43.214;27.936;2023-09-08T12:55:07;10.43;;;3.53;;
9763;SDS011;4921;43.214;27.936;2023-09-08T12:57:34;4.40;;;2.70;;
9763;SDS011;4921;43.214;27.936;2023-09-08T13:00:02;7.03;;;3.30;;
9763;SDS011;4921;43.214;27.936;2023-09-08T13:02:30;8.27;;;3.27;;
9763;SDS011;4921;43.214;27.936;2023-09-08T13:04:57;5.13;;;2.90;;
9763;SDS011;4921;43.214;27.936;2023-09-08T13:07:25;9.13;;;2.90;;
9763;SDS011;4921;43.214;27.936;2023-09-08T13:09:52;5.83;;;2.87;;
9763;SDS011;4921;43.214;27.936;2023-09-08T13:12:19;7.50;;;2.87;;
9763;SDS011;4921;43.214;27.936;2023-09-08T13:14:46;4.20;;;2.43;;
9763;SDS011;4921;43.214;27.936;2023-09-08T13:17:14;4.90;;;2.70;;
9763;SDS011;4921;43.214;27.936;2023-09-08T13:19:41;4.53;;;2.83;;
9763;SDS011;4921;43.214;27.936;2023-09-08T13:22:08;5.93;;;3.00;;
9763;SDS011;4921;43.214;27.936;2023-09-08T13:24:37;4.60;;;2.80;;
9763;SDS011;4921;43.214;27.936;2023-09-08T13:27:05;7.50;;;3.27;;
9763;SDS011;4921;43.214;27.936;2023-09-08T13:29:32;9.07;;;2.57;;
9763;SDS011;4921;43.214;27.936;2023-09-08T13:31:59;3.47;;;2.23;;
9763;SDS011;4921;43.214;27.936;2023-09-08T13:34:26;3.80;;;2.43;;
9763;SDS011;4921;43.214;27.936;2023-09-08T13:36:53;7.30;;;2.70;;
9763;SDS011;4921;43.214;27.936;2023-09-08T13:39:20;6.10;;;2.43;;
9763;SDS011;4921;43.214;27.936;2023-09-08T13:41:49;5.30;;;2.10;;
9763;SDS011;4921;43.214;27.936;2023-09-08T13:44:17;6.57;;;2.40;;
9763;SDS011;4921;43.214;27.936;2023-09-08T13:46:45;5.60;;;2.13;;
9763;SDS011;4921;43.214;27.936;2023-09-08T13:49:13;7.07;;;3.00;;
9763;SDS011;4921;43.214;27.936;2023-09-08T13:51:40;12.40;;;2.93;;
9763;SDS011;4921;43.214;27.936;2023-09-08T13:54:07;6.47;;;3.07;;
9763;SDS011;4921;43.214;27.936;2023-09-08T13:56:34;4.17;;;2.63;;
9763;SDS011;4921;43.214;27.936;2023-09-08T13:59:07;6.77;;;2.90;;
9763;SDS011;4921;43.214;27.936;2023-09-08T14:01:34;4.70;;;2.30;;
9763;SDS011;4921;43.214;27.936;2023-09-08T14:04:03;3.90;;;2.40;;
9763;SDS011;4921;43.214;27.936;2023-09-08T14:06:31;8.70;;;2.37;;
9763;SDS011;4921;43.214;27.936;2023-09-08T14:08:59;3.20;;;2.57;;
9763;SDS011;4921;43.214;27.936;2023-09-08T14:11:25;5.20;;;2.57;;
9763;SDS011;4921;43.214;27.936;2023-09-08T14:13:53;5.87;;;2.27;;
9763;SDS011;4921;43.214;27.936;2023-09-08T14:16:21;4.53;;;3.03;;
9763;SDS011;4921;43.214;27.936;2023-09-08T14:18:48;4.20;;;2.67;;
9763;SDS011;4921;43.214;27.936;2023-09-08T14:21:15;8.80;;;2.90;;
9763;SDS011;4921;43.214;27.936;2023-09-08T14:23:43;6.00;;;2.90;;
9763;SDS011;4921;43.214;27.936;2023-09-08T14:26:10;5.10;;;3.00;;
9763;SDS011;4921;43.214;27.936;2023-09-08T14:28:37;5.93;;;2.80;;
9763;SDS011;4921;43.214;27.936;2023-09-08T14:31:04;2.70;;;2.50;;
9763;SDS011;4921;43.214;27.936;2023-09-08T14:33:33;8.87;;;2.73;;
9763;SDS011;4921;43.214;27.936;2023-09-08T14:36:00;5.00;;;3.07;;
9763;SDS011;4921;43.214;27.936;2023-09-08T14:38:27;4.17;;;2.53;;
9763;SDS011;4921;43.214;27.936;2023-09-08T14:40:54;4.03;;;2.90;;
9763;SDS011;4921;43.214;27.936;2023-09-08T14:43:22;8.93;;;3.00;;
9763;SDS011;4921;43.214;27.936;2023-09-08T14:45:50;5.07;;;2.93;;
9763;SDS011;4921;43.214;27.936;2023-09-08T14:48:17;3.83;;;2.60;;
9763;SDS011;4921;43.214;27.936;2023-09-08T14:50:46;5.77;;;3.10;;
9763;SDS011;4921;43.214;27.936;2023-09-08T14:53:13;7.57;;;2.90;;
9763;SDS011;4921;43.214;27.936;2023-09-08T14:55:40;3.50;;;2.43;;
9763;SDS011;4921;43.214;27.936;2023-09-08T14:58:09;5.60;;;3.10;;
9763;SDS011;4921;43.214;27.936;2023-09-08T15:00:37;4.17;;;2.50;;
9763;SDS011;4921;43.214;27.936;2023-09-08T15:03:05;3.93;;;3.00;;
9763;SDS011;4921;43.214;27.936;2023-09-08T15:05:32;6.67;;;2.87;;
9763;SDS011;4921;43.214;27.936;2023-09-08T15:08:01;5.37;;;2.67;;
9763;SDS011;4921;43.214;27.936;2023-09-08T15:10:29;6.17;;;2.63;;